Time;durP1;ratioP1;P1;durP2;ratioP2;P2;SDS_P1;SDS_P2;PMS_P1;PMS_P2;Temp;Humidity;BMP_temperature;BMP_pressure;BME280_temperature;BME280_humidity;BME280_pressure;Samples;Min_cycle;Max_cycle;Signal;HPM_P1;HPM_P2
2023/12/26 00:00:10;;;;;;;1.38;0.60;;;9.70;99.90;;;;;;5108172;27;20039;-68
2023/12/26 00:02:35;;;;;;;1.05;0.57;;;9.70;99.90;;;;;;5104271;27;20736;-68
2023/12/26 00:05:03;;;;;;;1.27;0.70;;;9.70;99.90;;;;;;5110638;27;20080;-68
2023/12/26 00:07:29;;;;;;;0.77;0.70;;;9.70;99.90;;;;;;5106392;27;20392;-68
2023/12/26 00:09:55;;;;;;;1.00;0.50;;;9.70;99.90;;;;;;5086468;28;20032;-68
2023/12/26 00:12:20;;;;;;;1.67;0.40;;;9.70;99.90;;;;;;5105978;27;20467;-68
2023/12/26 00:14:46;;;;;;;1.60;0.47;;;9.70;99.90;;;;;;5107529;27;20063;-68
2023/12/26 00:17:11;;;;;;;1.33;0.68;;;9.70;99.90;;;;;;5132537;27;20100;-68
2023/12/26 00:19:37;;;;;;;1.15;0.50;;;9.70;99.90;;;;;;5087901;28;20027;-68
2023/12/26 00:22:03;;;;;;;0.75;0.50;;;9.80;99.90;;;;;;5106558;27;20159;-68
2023/12/26 00:24:29;;;;;;;1.58;0.50;;;9.80;99.90;;;;;;5104463;27;20511;-68
2023/12/26 00:26:54;;;;;;;0.85;0.52;;;9.80;99.90;;;;;;5100458;28;20489;-68
2023/12/26 00:29:20;;;;;;;1.00;0.50;;;9.80;99.90;;;;;;5102904;28;20044;-68
2023/12/26 00:31:45;;;;;;;1.95;0.80;;;9.90;99.90;;;;;;5091088;28;20063;-68
2023/12/26 00:34:12;;;;;;;1.48;0.63;;;9.80;99.90;;;;;;5135499;27;20039;-68
2023/12/26 00:36:37;;;;;;;0.80;0.70;;;9.80;99.90;;;;;;5104191;28;20066;-68
2023/12/26 00:39:03;;;;;;;1.67;0.73;;;9.90;99.90;;;;;;5102111;28;20650;-68
2023/12/26 00:41:29;;;;;;;2.38;1.10;;;9.90;99.90;;;;;;5104732;28;20063;-68
2023/12/26 00:43:55;;;;;;;1.90;0.45;;;9.90;99.90;;;;;;5133586;27;20064;-68
2023/12/26 00:46:21;;;;;;;2.17;0.60;;;9.90;99.90;;;;;;5104401;27;20036;-68
2023/12/26 00:48:47;;;;;;;1.40;0.30;;;9.90;99.90;;;;;;5103059;28;20042;-68
2023/12/26 00:51:12;;;;;;;1.85;0.20;;;9.90;99.90;;;;;;5102776;28;20052;-69
2023/12/26 00:53:38;;;;;;;0.70;0.20;;;9.90;99.90;;;;;;5099956;27;20071;-68
2023/12/26 00:56:04;;;;;;;1.25;0.25;;;9.90;99.90;;;;;;5103499;28;20040;-68
2023/12/26 00:58:29;;;;;;;0.93;0.28;;;10.00;99.90;;;;;;5102407;28;20367;-68
2023/12/26 01:00:55;;;;;;;0.52;0.20;;;9.90;99.90;;;;;;5104968;28;20442;-68
2023/12/26 01:03:22;;;;;;;0.28;0.17;;;10.00;99.90;;;;;;5099025;28;20131;-68
2023/12/26 01:05:49;;;;;;;0.60;0.20;;;9.90;99.90;;;;;;5101460;28;20043;-68
2023/12/26 01:08:16;;;;;;;3.35;0.30;;;9.90;99.90;;;;;;5137820;27;20040;-68
2023/12/26 01:10:42;;;;;;;2.30;0.60;;;9.90;99.90;;;;;;5101128;28;20024;-68
2023/12/26 01:13:08;;;;;;;1.27;0.20;;;9.90;99.90;;;;;;5102062;28;20398;-68
2023/12/26 01:15:34;;;;;;;0.88;0.40;;;9.90;99.90;;;;;;5102256;28;20044;-68
2023/12/26 01:17:59;;;;;;;2.65;0.20;;;9.90;99.90;;;;;;5102006;28;20066;-68
2023/12/26 01:20:25;;;;;;;1.10;0.38;;;9.90;99.90;;;;;;5100454;27;20054;-68
2023/12/26 01:22:51;;;;;;;0.82;0.20;;;9.90;99.90;;;;;;5099630;28;20039;-68
2023/12/26 01:25:17;;;;;;;0.98;0.15;;;9.90;99.90;;;;;;5102316;28;20042;-68
2023/12/26 01:27:43;;;;;;;1.33;0.22;;;9.90;99.90;;;;;;5132961;27;20040;-68
2023/12/26 01:30:08;;;;;;;1.73;0.20;;;9.80;99.90;;;;;;5135032;27;20052;-68
2023/12/26 01:32:34;;;;;;;3.65;0.30;;;9.90;99.90;;;;;;5102268;28;20032;-68
2023/12/26 01:35:00;;;;;;;3.47;0.60;;;9.90;99.90;;;;;;5136130;27;20043;-68
2023/12/26 01:37:26;;;;;;;4.50;0.30;;;9.90;99.90;;;;;;5105149;28;20044;-68
2023/12/26 01:39:52;;;;;;;2.75;0.30;;;9.80;99.90;;;;;;5135500;27;20039;-68
2023/12/26 01:42:17;;;;;;;5.53;0.40;;;9.80;99.90;;;;;;5101221;28;20036;-68
2023/12/26 01:44:43;;;;;;;5.82;0.82;;;9.80;99.90;;;;;;5101558;28;20046;-68
2023/12/26 01:47:13;;;;;;;3.95;0.40;;;9.80;99.90;;;;;;5104504;28;20134;-68
2023/12/26 01:49:40;;;;;;;3.65;0.32;;;9.80;99.90;;;;;;5100955;28;20181;-68
2023/12/26 01:52:08;;;;;;;5.88;1.20;;;9.80;99.90;;;;;;5100832;28;20039;-68
2023/12/26 01:54:36;;;;;;;5.35;0.70;;;9.70;99.90;;;;;;5100464;28;20055;-68
2023/12/26 01:57:06;;;;;;;4.72;0.75;;;9.80;99.90;;;;;;5106631;28;20097;-68
2023/12/26 01:59:35;;;;;;;5.60;0.65;;;9.70;99.90;;;;;;5104991;28;20626;-68
2023/12/26 02:02:01;;;;;;;3.40;0.43;;;9.70;99.90;;;;;;5103699;28;20080;-68
2023/12/26 02:04:26;;;;;;;8.40;0.60;;;9.70;99.90;;;;;;5131972;27;20049;-68
2023/12/26 02:06:53;;;;;;;7.38;1.33;;;9.70;99.90;;;;;;5132699;27;20048;-68
2023/12/26 02:09:19;;;;;;;8.95;0.55;;;9.70;99.90;;;;;;5098686;28;20121;-68
2023/12/26 02:11:44;;;;;;;4.47;0.47;;;9.70;99.90;;;;;;5099338;28;20063;-68
2023/12/26 02:14:10;;;;;;;9.40;1.08;;;9.60;99.90;;;;;;5102214;28;20042;-68
2023/12/26 02:16:38;;;;;;;6.75;0.55;;;9.60;99.90;;;;;;5105275;28;20130;-68
2023/12/26 02:19:04;;;;;;;7.93;0.70;;;9.60;99.90;;;;;;5101930;28;20043;-68
2023/12/26 02:21:30;;;;;;;6.97;1.13;;;9.60;99.90;;;;;;5101184;28;20046;-68
2023/12/26 02:23:56;;;;;;;9.32;1.05;;;9.60;99.90;;;;;;5132844;27;20478;-68
2023/12/26 02:26:24;;;;;;;10.35;1.30;;;9.60;99.90;;;;;;5099106;28;20036;-68
2023/12/26 02:28:52;;;;;;;9.75;0.80;;;9.60;99.90;;;;;;5100890;28;20911;-68
2023/12/26 02:31:18;;;;;;;6.53;0.73;;;9.60;99.90;;;;;;5105435;28;20043;-68
2023/12/26 02:33:46;;;;;;;6.40;0.60;;;9.60;99.90;;;;;;5100877;28;20408;-68
2023/12/26 02:36:12;;;;;;;8.30;0.70;;;9.60;99.90;;;;;;5132677;27;20040;-68
2023/12/26 02:38:38;;;;;;;9.18;1.00;;;9.60;99.90;;;;;;5100503;28;20501;-68
2023/12/26 02:41:04;;;;;;;9.95;0.98;;;9.50;99.90;;;;;;5132478;27;20054;-68
2023/12/26 02:43:29;;;;;;;12.73;1.70;;;9.50;99.90;;;;;;5129195;27;20062;-68
2023/12/26 02:45:55;;;;;;;11.20;0.90;;;9.50;99.90;;;;;;5101647;28;21010;-68
2023/12/26 02:48:21;;;;;;;9.00;0.75;;;9.50;99.90;;;;;;5102133;28;20110;-68
2023/12/26 02:50:47;;;;;;;10.05;0.95;;;9.50;99.90;;;;;;5101847;28;20034;-68
2023/12/26 02:53:14;;;;;;;11.63;1.65;;;9.50;99.90;;;;;;5137026;27;20043;-68
2023/12/26 02:55:40;;;;;;;12.18;1.33;;;9.50;99.90;;;;;;5136548;27;20515;-68
2023/12/26 02:58:05;;;;;;;4.57;0.88;;;9.50;99.90;;;;;;5105206;28;20539;-68
2023/12/26 03:00:31;;;;;;;7.45;0.85;;;9.50;99.90;;;;;;5106484;27;20036;-68
2023/12/26 03:02:57;;;;;;;9.60;1.13;;;9.40;99.90;;;;;;5105817;27;20405;-68
2023/12/26 03:05:23;;;;;;;10.57;2.25;;;9.40;99.90;;;;;;5103070;28;20047;-68
2023/12/26 03:07:49;;;;;;;10.45;1.35;;;9.40;99.90;;;;;;5102696;27;20448;-68
2023/12/26 03:10:15;;;;;;;10.00;1.10;;;9.40;99.90;;;;;;5104926;28;20470;-68
2023/12/26 03:12:41;;;;;;;14.93;2.00;;;9.40;99.90;;;;;;5104471;28;20046;-68
2023/12/26 03:15:08;;;;;;;9.32;1.70;;;9.40;99.90;;;;;;5106551;27;20039;-68
2023/12/26 03:17:34;;;;;;;6.05;0.93;;;9.40;99.90;;;;;;5134879;27;20489;-68
2023/12/26 03:19:59;;;;;;;8.27;0.75;;;9.50;99.90;;;;;;5105926;27;20036;-68
2023/12/26 03:22:25;;;;;;;5.80;0.70;;;9.50;99.90;;;;;;5102295;28;20084;-68
2023/12/26 03:24:51;;;;;;;7.13;1.15;;;9.40;99.90;;;;;;5106028;28;20110;-68
2023/12/26 03:27:17;;;;;;;2.85;0.40;;;9.20;99.90;;;;;;5103993;28;20073;-68
2023/12/26 03:29:42;;;;;;;2.67;0.30;;;9.00;99.90;;;;;;5136936;27;20032;-68
2023/12/26 03:32:09;;;;;;;3.65;0.30;;;8.90;99.90;;;;;;5102664;28;20425;-68
2023/12/26 03:34:37;;;;;;;4.07;0.55;;;8.70;99.90;;;;;;5105402;27;20513;-68
2023/12/26 03:37:03;;;;;;;3.38;0.65;;;8.60;99.90;;;;;;5102934;28;20116;-68
2023/12/26 03:39:29;;;;;;;3.55;0.40;;;8.50;99.90;;;;;;5105265;27;20043;-68
2023/12/26 03:41:55;;;;;;;3.53;0.40;;;8.40;99.90;;;;;;5140042;27;20043;-68
2023/12/26 03:44:20;;;;;;;4.20;0.60;;;8.30;99.90;;;;;;5109124;27;20585;-68
2023/12/26 03:46:46;;;;;;;4.80;0.60;;;8.20;99.90;;;;;;5138714;27;20043;-68
2023/12/26 03:49:12;;;;;;;5.70;0.88;;;8.10;99.90;;;;;;5102263;27;20473;-68
2023/12/26 03:51:38;;;;;;;4.85;0.50;;;8.10;99.90;;;;;;5107194;27;20127;-68
2023/12/26 03:54:03;;;;;;;4.22;0.55;;;8.10;99.90;;;;;;5103409;27;20594;-68
2023/12/26 03:56:33;;;;;;;6.40;0.60;;;8.10;99.90;;;;;;5102851;27;20047;-68
2023/12/26 03:59:03;;;;;;;6.57;1.17;;;8.00;99.90;;;;;;5108561;27;20035;-68
2023/12/26 04:01:30;;;;;;;7.13;0.70;;;8.00;99.90;;;;;;5106655;27;20035;-68
2023/12/26 04:03:56;;;;;;;9.40;2.00;;;8.00;99.90;;;;;;5101937;28;20031;-68
2023/12/26 04:06:21;;;;;;;10.52;1.48;;;8.00;99.90;;;;;;5106741;27;20032;-68
2023/12/26 04:08:47;;;;;;;8.88;1.02;;;8.00;99.90;;;;;;5101770;27;20039;-68
2023/12/26 04:11:13;;;;;;;7.22;0.88;;;8.00;99.90;;;;;;5134638;27;20039;-68
2023/12/26 04:13:39;;;;;;;7.18;1.20;;;8.00;99.90;;;;;;5107296;27;20130;-68
2023/12/26 04:16:05;;;;;;;9.07;1.83;;;8.00;99.90;;;;;;5101732;27;20051;-68
2023/12/26 04:18:31;;;;;;;7.82;1.27;;;8.00;99.90;;;;;;5106345;27;20039;-68
2023/12/26 04:20:57;;;;;;;9.90;1.35;;;8.00;99.90;;;;;;5105116;27;20032;-68
2023/12/26 04:23:23;;;;;;;12.07;2.15;;;7.90;99.90;;;;;;5105723;27;20047;-68
2023/12/26 04:25:49;;;;;;;10.52;1.63;;;7.90;99.90;;;;;;5105482;27;20035;-68
2023/12/26 04:28:15;;;;;;;9.45;1.60;;;7.90;99.90;;;;;;5119851;27;20119;-68
2023/12/26 04:30:41;;;;;;;14.25;2.17;;;7.90;99.90;;;;;;5135630;27;20130;-68
2023/12/26 04:33:07;;;;;;;14.02;1.98;;;7.90;99.90;;;;;;5105861;27;20130;-68
2023/12/26 04:35:36;;;;;;;14.52;2.05;;;7.80;99.90;;;;;;5105855;27;20055;-68
2023/12/26 04:38:03;;;;;;;17.48;3.47;;;7.90;99.90;;;;;;5135257;27;20044;-68
2023/12/26 04:40:28;;;;;;;10.88;2.45;;;7.80;99.90;;;;;;5103987;27;20035;-68
2023/12/26 04:42:54;;;;;;;14.25;1.58;;;7.80;99.90;;;;;;5106208;27;20054;-68
2023/12/26 04:45:20;;;;;;;15.85;2.15;;;7.80;99.90;;;;;;5105398;28;20477;-68
2023/12/26 04:47:46;;;;;;;13.05;2.17;;;7.80;99.90;;;;;;5104603;27;20043;-68
2023/12/26 04:50:12;;;;;;;11.45;2.53;;;7.80;99.90;;;;;;5102007;27;20044;-68
2023/12/26 04:52:37;;;;;;;18.75;2.05;;;7.80;99.90;;;;;;5104446;28;20036;-68
2023/12/26 04:55:03;;;;;;;13.90;1.30;;;7.80;99.90;;;;;;5134522;27;21469;-68
2023/12/26 04:57:29;;;;;;;11.73;2.08;;;7.70;99.90;;;;;;5103621;27;20039;-68
2023/12/26 04:59:55;;;;;;;10.98;1.08;;;7.70;99.90;;;;;;5104755;27;20035;-68
2023/12/26 05:02:21;;;;;;;8.02;1.33;;;7.70;99.90;;;;;;5106280;27;20039;-68
2023/12/26 05:04:46;;;;;;;12.38;1.83;;;7.70;99.90;;;;;;5105451;27;20535;-67
2023/12/26 05:07:13;;;;;;;10.70;1.30;;;7.60;99.90;;;;;;5100441;27;20035;-68
2023/12/26 05:09:38;;;;;;;9.85;1.20;;;7.60;99.90;;;;;;5105191;28;20038;-68
2023/12/26 05:12:04;;;;;;;9.25;1.05;;;7.60;99.90;;;;;;5103556;28;20031;-67
2023/12/26 05:14:30;;;;;;;15.60;1.63;;;7.60;99.90;;;;;;5104772;28;20031;-68
2023/12/26 05:16:56;;;;;;;8.68;1.65;;;7.60;99.90;;;;;;5105877;27;20040;-68
2023/12/26 05:19:22;;;;;;;8.52;1.10;;;7.60;99.90;;;;;;5132943;27;20040;-68
2023/12/26 05:21:48;;;;;;;12.45;1.48;;;7.70;99.90;;;;;;5103322;27;20025;-68
2023/12/26 05:24:13;;;;;;;6.50;1.33;;;7.70;99.90;;;;;;5102271;28;20604;-68
2023/12/26 05:26:40;;;;;;;8.65;1.25;;;7.60;99.90;;;;;;5103117;28;20502;-68
2023/12/26 05:29:07;;;;;;;9.35;1.23;;;7.70;99.90;;;;;;5104150;28;20071;-67
2023/12/26 05:31:32;;;;;;;9.73;1.00;;;7.80;99.90;;;;;;5101618;28;20047;-68
2023/12/26 05:34:00;;;;;;;9.52;1.63;;;7.80;99.90;;;;;;5102063;27;20039;-67
2023/12/26 05:36:26;;;;;;;7.05;0.88;;;7.90;99.90;;;;;;5131547;27;20477;-68
2023/12/26 05:38:52;;;;;;;13.13;1.67;;;7.90;99.90;;;;;;5104787;28;20047;-68
2023/12/26 05:41:18;;;;;;;9.70;1.35;;;8.00;99.90;;;;;;5102082;28;20031;-68
2023/12/26 05:43:44;;;;;;;8.10;1.63;;;8.00;99.90;;;;;;5104403;28;20126;-67
2023/12/26 05:46:10;;;;;;;9.50;1.23;;;8.00;99.90;;;;;;5102535;28;20051;-68
2023/12/26 05:48:36;;;;;;;6.65;1.08;;;8.10;99.90;;;;;;5135391;27;20046;-67
2023/12/26 05:51:02;;;;;;;6.70;1.52;;;8.10;99.90;;;;;;5102284;28;20044;-68
2023/12/26 05:53:30;;;;;;;14.20;1.38;;;8.20;99.90;;;;;;5101762;28;20047;-68
2023/12/26 05:55:56;;;;;;;12.00;1.73;;;8.20;99.90;;;;;;5105560;28;20043;-68
2023/12/26 05:58:23;;;;;;;5.25;0.80;;;8.20;99.90;;;;;;5100417;28;20027;-68
2023/12/26 06:00:49;;;;;;;9.35;1.00;;;8.30;99.90;;;;;;5102247;28;20047;-68
2023/12/26 06:03:15;;;;;;;5.93;0.82;;;8.30;99.90;;;;;;5082537;28;20044;-68
2023/12/26 06:05:41;;;;;;;12.02;0.75;;;8.30;99.90;;;;;;5130701;27;20039;-68
2023/12/26 06:08:07;;;;;;;10.85;0.85;;;8.40;99.90;;;;;;5099717;28;20054;-68
2023/12/26 06:10:33;;;;;;;9.52;1.05;;;8.40;99.90;;;;;;5101326;28;20478;-68
2023/12/26 06:12:59;;;;;;;6.53;1.50;;;8.40;99.90;;;;;;5103823;28;20378;-68
2023/12/26 06:15:24;;;;;;;6.93;1.38;;;8.50;99.90;;;;;;5099984;28;20040;-68
2023/12/26 06:17:50;;;;;;;10.52;1.50;;;8.50;99.90;;;;;;5135010;27;20119;-68
2023/12/26 06:20:16;;;;;;;10.27;1.20;;;8.40;99.90;;;;;;5102576;28;20039;-68
2023/12/26 06:22:42;;;;;;;7.88;1.33;;;8.50;99.90;;;;;;5101261;28;20046;-67
2023/12/26 06:25:08;;;;;;;7.18;0.90;;;8.50;99.90;;;;;;5102503;28;20390;-67
2023/12/26 06:27:35;;;;;;;7.25;1.02;;;8.50;99.90;;;;;;5103587;27;20058;-68
2023/12/26 06:30:00;;;;;;;8.43;1.55;;;8.60;99.90;;;;;;5105291;27;20046;-68
2023/12/26 06:32:28;;;;;;;15.35;3.58;;;8.60;99.90;;;;;;5103645;28;20032;-68
2023/12/26 06:34:54;;;;;;;11.88;2.35;;;8.60;99.90;;;;;;5106848;28;20512;-68
2023/12/26 06:37:19;;;;;;;8.40;1.38;;;8.60;99.90;;;;;;5106066;28;20410;-68
2023/12/26 06:39:45;;;;;;;8.02;1.30;;;8.50;99.90;;;;;;5103687;28;20032;-68
2023/12/26 06:42:11;;;;;;;14.50;1.63;;;8.60;99.90;;;;;;5106993;27;20061;-68
2023/12/26 06:44:37;;;;;;;8.93;1.88;;;8.60;99.90;;;;;;5138231;27;20150;-68
2023/12/26 06:47:03;;;;;;;11.32;1.83;;;8.60;99.90;;;;;;5105812;28;20123;-68
2023/12/26 06:49:29;;;;;;;12.82;1.73;;;8.50;99.90;;;;;;5104956;28;20039;-68
2023/12/26 06:51:55;;;;;;;14.00;1.70;;;8.60;99.90;;;;;;5103178;27;20041;-68
2023/12/26 06:54:20;;;;;;;6.18;1.20;;;8.50;99.90;;;;;;5136966;27;20075;-68
2023/12/26 06:56:46;;;;;;;13.80;2.70;;;8.50;99.90;;;;;;5106381;28;20040;-68
2023/12/26 06:59:12;;;;;;;14.10;2.25;;;8.50;99.90;;;;;;5134601;27;20085;-68
2023/12/26 07:01:38;;;;;;;10.13;2.55;;;8.50;99.90;;;;;;5108043;27;20398;-68
2023/12/26 07:04:03;;;;;;;13.30;2.60;;;8.50;99.90;;;;;;5105392;28;20626;-68
2023/12/26 07:06:29;;;;;;;11.85;2.17;;;8.50;99.90;;;;;;5107240;28;20097;-68
2023/12/26 07:08:55;;;;;;;7.05;1.55;;;8.50;99.90;;;;;;5103722;28;20106;-68
2023/12/26 07:11:21;;;;;;;11.50;1.70;;;8.50;99.90;;;;;;5102541;28;20050;-68
2023/12/26 07:13:46;;;;;;;9.82;1.73;;;8.50;99.90;;;;;;5104196;27;20481;-68
2023/12/26 07:16:12;;;;;;;9.18;1.40;;;8.50;99.90;;;;;;5104932;27;20417;-68
2023/12/26 07:18:38;;;;;;;11.75;2.03;;;8.50;99.90;;;;;;5105851;28;20505;-68
2023/12/26 07:21:04;;;;;;;11.60;2.38;;;8.50;99.90;;;;;;5108492;27;20036;-68
2023/12/26 07:23:29;;;;;;;11.88;2.20;;;8.50;99.90;;;;;;5137066;27;20055;-68
2023/12/26 07:25:55;;;;;;;9.15;1.27;;;8.50;99.90;;;;;;5107932;28;20079;-68
2023/12/26 07:28:21;;;;;;;10.27;1.30;;;8.50;99.90;;;;;;5103054;28;20039;-68
2023/12/26 07:30:47;;;;;;;13.02;2.20;;;8.50;99.90;;;;;;5104478;27;20047;-68
2023/12/26 07:33:13;;;;;;;10.73;1.85;;;8.50;99.90;;;;;;5102095;28;20088;-68
2023/12/26 07:35:39;;;;;;;13.95;2.17;;;8.50;99.90;;;;;;5102670;27;20048;-68
2023/12/26 07:38:05;;;;;;;14.48;2.22;;;8.50;99.90;;;;;;5103539;28;20098;-68
2023/12/26 07:40:34;;;;;;;9.80;1.85;;;8.50;99.90;;;;;;5100368;27;20055;-67
2023/12/26 07:42:59;;;;;;;11.73;1.48;;;8.50;99.90;;;;;;5092014;27;20032;-67
2023/12/26 07:45:25;;;;;;;12.35;2.50;;;8.40;99.90;;;;;;5106920;27;20590;-68
2023/12/26 07:47:54;;;;;;;11.63;2.00;;;8.40;99.90;;;;;;5103863;27;20046;-68
2023/12/26 07:50:21;;;;;;;10.98;2.38;;;8.40;99.90;;;;;;5101157;27;20059;-68
2023/12/26 07:52:47;;;;;;;11.18;3.90;;;8.40;99.90;;;;;;5102671;27;20047;-66
2023/12/26 07:55:13;;;;;;;13.00;1.48;;;8.40;99.90;;;;;;5136814;27;20040;-68
2023/12/26 07:57:38;;;;;;;12.10;2.50;;;8.40;99.90;;;;;;5103102;27;20079;-68
2023/12/26 08:00:04;;;;;;;8.35;1.83;;;8.40;99.90;;;;;;5105011;28;20032;-68
2023/12/26 08:02:30;;;;;;;14.88;1.85;;;8.40;99.90;;;;;;5101786;28;20079;-68
2023/12/26 08:04:56;;;;;;;12.90;1.73;;;8.50;99.90;;;;;;5104405;27;20064;-68
2023/12/26 08:07:22;;;;;;;6.63;1.50;;;8.40;99.90;;;;;;5084518;28;20485;-68
2023/12/26 08:09:47;;;;;;;13.35;1.95;;;8.40;99.90;;;;;;5137048;27;20051;-68
2023/12/26 08:12:13;;;;;;;12.73;2.22;;;8.40;99.90;;;;;;5105269;27;20469;-68
2023/12/26 08:14:39;;;;;;;9.68;1.92;;;8.40;99.90;;;;;;5105696;27;20032;-68
2023/12/26 08:17:04;;;;;;;8.68;1.95;;;8.40;99.90;;;;;;5102259;28;20044;-68
2023/12/26 08:19:31;;;;;;;15.15;1.65;;;8.40;99.90;;;;;;5101080;27;20126;-68
2023/12/26 08:21:57;;;;;;;14.52;2.25;;;8.50;99.90;;;;;;5104091;27;20040;-68
2023/12/26 08:24:22;;;;;;;11.52;1.92;;;8.40;99.90;;;;;;5105229;27;20062;-68
2023/12/26 08:26:53;;;;;;;11.52;2.22;;;8.40;99.90;;;;;;5090115;28;20038;-68
2023/12/26 08:29:19;;;;;;;15.35;2.58;;;8.40;99.90;;;;;;5103928;27;20491;-68
2023/12/26 08:31:45;;;;;;;11.13;1.77;;;8.50;99.90;;;;;;5102060;27;20044;-68
2023/12/26 08:34:10;;;;;;;16.15;2.38;;;8.50;99.90;;;;;;5106285;27;20116;-68
2023/12/26 08:36:36;;;;;;;11.05;2.53;;;8.50;99.90;;;;;;5104099;27;20032;-68
2023/12/26 08:39:02;;;;;;;17.00;3.08;;;8.50;99.90;;;;;;5100946;28;20039;-69
2023/12/26 08:41:27;;;;;;;13.20;1.80;;;8.50;99.90;;;;;;5106319;27;20142;-68
2023/12/26 08:43:53;;;;;;;11.23;1.85;;;8.50;99.90;;;;;;5104338;27;20039;-68
2023/12/26 08:46:19;;;;;;;17.33;2.45;;;8.50;99.90;;;;;;5100840;27;20085;-68
2023/12/26 08:48:45;;;;;;;9.50;2.75;;;8.50;99.90;;;;;;5103652;27;20039;-68
2023/12/26 08:51:11;;;;;;;12.13;2.35;;;8.50;99.90;;;;;;5102570;28;20050;-68
2023/12/26 08:53:37;;;;;;;11.85;2.30;;;8.50;99.90;;;;;;5102377;28;20106;-68
2023/12/26 08:56:05;;;;;;;10.52;1.77;;;8.60;99.90;;;;;;5101451;28;20050;-68
2023/12/26 08:58:35;;;;;;;12.68;1.92;;;8.50;99.90;;;;;;5100146;28;20075;-67
2023/12/26 09:01:01;;;;;;;7.75;1.52;;;8.50;99.90;;;;;;5090907;28;20039;-68
2023/12/26 09:03:27;;;;;;;12.23;1.83;;;8.60;99.90;;;;;;5102653;28;20040;-68
2023/12/26 09:05:53;;;;;;;10.48;1.83;;;8.60;99.90;;;;;;5101413;28;20042;-68
2023/12/26 09:08:19;;;;;;;8.75;1.60;;;8.60;99.90;;;;;;5101927;28;20086;-68
2023/12/26 09:10:45;;;;;;;13.90;2.58;;;8.60;99.90;;;;;;5101210;28;20079;-68
2023/12/26 09:13:11;;;;;;;10.75;2.38;;;8.70;99.90;;;;;;5100404;28;20043;-67
2023/12/26 09:15:37;;;;;;;10.10;1.73;;;8.70;99.90;;;;;;5101542;28;20527;-68
2023/12/26 09:18:03;;;;;;;13.77;1.92;;;8.60;99.90;;;;;;5102116;28;20092;-68
2023/12/26 09:20:30;;;;;;;11.45;2.67;;;8.70;99.90;;;;;;5101218;27;20044;-68
2023/12/26 09:22:55;;;;;;;11.35;1.88;;;8.70;99.90;;;;;;5102902;27;20097;-68
2023/12/26 09:25:21;;;;;;;14.82;2.03;;;8.70;99.90;;;;;;5101841;28;20059;-68
2023/12/26 09:27:47;;;;;;;10.10;1.98;;;8.70;99.90;;;;;;5101518;28;20073;-68
2023/12/26 09:30:13;;;;;;;19.50;3.00;;;8.70;99.90;;;;;;5115827;27;20069;-68
2023/12/26 09:32:39;;;;;;;12.85;2.45;;;8.70;99.90;;;;;;5102605;28;20048;-68
2023/12/26 09:35:07;;;;;;;10.82;2.05;;;8.80;99.90;;;;;;5100002;28;20051;-68
2023/12/26 09:37:35;;;;;;;18.42;2.58;;;8.70;99.90;;;;;;5101896;28;20094;-68
2023/12/26 09:40:02;;;;;;;8.98;2.05;;;8.70;99.90;;;;;;5134152;27;20466;-68
2023/12/26 09:42:29;;;;;;;10.02;1.63;;;8.80;99.90;;;;;;5100891;28;20472;-68
2023/12/26 09:44:56;;;;;;;10.07;1.83;;;8.80;99.90;;;;;;5100409;28;20127;-68
2023/12/26 09:47:25;;;;;;;14.52;1.95;;;8.80;99.90;;;;;;5101767;28;20043;-68
2023/12/26 09:49:51;;;;;;;12.90;2.50;;;8.90;99.90;;;;;;5103289;28;20047;-68
2023/12/26 09:52:17;;;;;;;12.88;2.95;;;9.00;99.90;;;;;;5133209;27;20439;-68
2023/12/26 09:54:45;;;;;;;13.50;2.88;;;9.00;99.90;;;;;;5135990;27;20047;-68
2023/12/26 09:57:12;;;;;;;15.02;2.53;;;9.10;99.90;;;;;;5105394;28;20038;-68
2023/12/26 09:59:39;;;;;;;10.00;2.22;;;9.20;99.90;;;;;;5102995;28;20900;-67
2023/12/26 10:02:10;;;;;;;12.13;2.90;;;9.20;99.90;;;;;;5105948;27;20039;-68
2023/12/26 10:04:36;;;;;;;10.60;2.67;;;9.20;99.90;;;;;;5108897;27;20150;-68
2023/12/26 10:07:02;;;;;;;10.88;1.88;;;9.20;99.90;;;;;;5107872;27;20820;-68
2023/12/26 10:09:28;;;;;;;10.52;2.03;;;9.30;99.90;;;;;;5106095;27;20104;-68
2023/12/26 10:11:53;;;;;;;14.27;2.63;;;9.30;99.90;;;;;;5106074;27;20130;-68
2023/12/26 10:14:29;;;;;;;13.95;2.35;;;9.40;99.90;;;;;;5102855;28;20142;-67
2023/12/26 10:16:58;;;;;;;13.68;2.50;;;9.40;99.90;;;;;;5104522;27;20507;-68
2023/12/26 10:19:24;;;;;;;14.57;3.05;;;9.30;99.90;;;;;;5105399;27;20039;-68
2023/12/26 10:21:51;;;;;;;13.82;3.10;;;9.30;99.90;;;;;;5106585;28;20035;-68
2023/12/26 10:24:18;;;;;;;11.15;2.42;;;9.30;99.90;;;;;;5137972;27;20043;-67
2023/12/26 10:26:43;;;;;;;18.20;2.53;;;9.30;99.90;;;;;;5107320;28;20050;-68
2023/12/26 10:29:16;;;;;;;14.27;2.42;;;9.30;99.90;;;;;;5105588;27;20035;-67
2023/12/26 10:31:43;;;;;;;11.40;1.77;;;9.40;99.90;;;;;;5107711;27;20050;-67
2023/12/26 10:34:19;;;;;;;12.32;2.63;;;9.30;99.90;;;;;;5111642;27;20046;-68
2023/12/26 10:36:46;;;;;;;18.10;3.15;;;9.40;99.90;;;;;;5108273;27;20123;-68
2023/12/26 10:39:13;;;;;;;18.17;2.80;;;9.30;99.90;;;;;;5105394;27;20097;-68
2023/12/26 10:41:42;;;;;;;18.50;3.13;;;9.30;99.90;;;;;;5106621;27;20035;-68
2023/12/26 10:44:08;;;;;;;14.00;2.33;;;9.30;99.90;;;;;;5103939;27;20051;-68
2023/12/26 10:46:34;;;;;;;19.92;3.38;;;9.30;99.90;;;;;;5104474;27;20073;-68
2023/12/26 10:49:06;;;;;;;15.55;3.42;;;9.30;99.90;;;;;;5106594;27;20050;-68
2023/12/26 10:51:32;;;;;;;12.88;2.78;;;9.30;99.90;;;;;;5106424;27;20036;-68
2023/12/26 10:54:07;;;;;;;12.07;2.88;;;9.30;99.90;;;;;;5107490;27;20048;-68
2023/12/26 10:56:33;;;;;;;12.07;2.15;;;9.30;99.90;;;;;;5104322;28;20085;-68
2023/12/26 10:59:01;;;;;;;13.73;2.50;;;9.30;99.90;;;;;;5102080;28;20032;-68
2023/12/26 13:53:54;;;;;;;8.25;1.40;;;8.80;99.90;;;;;;5101429;28;20096;-67
2023/12/26 13:56:57;;;;;;;7.22;1.10;;;8.80;99.90;;;;;;5099262;28;21010;-67
2023/12/26 14:00:01;;;;;;;4.28;0.50;;;8.70;99.90;;;;;;5098679;28;20050;-67
2023/12/26 14:03:04;;;;;;;8.10;1.50;;;8.70;99.90;;;;;;5115500;28;20048;-67
2023/12/26 14:06:07;;;;;;;10.70;1.90;;;8.60;99.90;;;;;;5101648;27;20374;-67
2023/12/26 14:09:10;;;;;;;5.72;0.60;;;8.60;99.90;;;;;;5099247;28;20055;-67
2023/12/26 14:12:13;;;;;;;3.38;0.70;;;8.60;99.90;;;;;;5099463;28;20052;-67
2023/12/26 14:15:16;;;;;;;3.72;0.45;;;8.40;99.90;;;;;;5100118;28;20042;-67
2023/12/26 14:18:20;;;;;;;6.65;1.13;;;8.40;99.90;;;;;;5134487;27;20497;-67
2023/12/26 14:21:23;;;;;;;4.88;0.55;;;8.40;99.90;;;;;;5097338;28;20066;-67
2023/12/26 14:24:26;;;;;;;4.50;0.93;;;8.30;99.90;;;;;;5134896;27;20036;-67
2023/12/26 14:27:29;;;;;;;5.78;0.70;;;8.30;99.90;;;;;;5102964;27;20078;-67
2023/12/26 14:30:33;;;;;;;5.32;1.20;;;8.20;99.90;;;;;;5101119;28;20131;-67
2023/12/26 14:33:36;;;;;;;3.80;0.57;;;8.10;99.90;;;;;;5103894;27;20790;-67
2023/12/26 14:36:39;;;;;;;5.63;1.30;;;8.00;99.90;;;;;;5102449;28;20044;-67
2023/12/26 14:39:42;;;;;;;4.47;0.70;;;8.00;99.90;;;;;;5098427;27;20060;-67
2023/12/26 14:42:46;;;;;;;6.32;0.50;;;7.90;99.90;;;;;;5101738;28;20043;-67
2023/12/26 14:45:48;;;;;;;4.10;0.32;;;7.80;99.90;;;;;;5100935;28;20122;-67
2023/12/26 14:48:52;;;;;;;3.83;0.93;;;7.70;99.90;;;;;;5134916;27;20478;-67
2023/12/26 14:51:55;;;;;;;8.80;1.17;;;7.70;99.90;;;;;;5103055;28;20682;-67
2023/12/26 14:54:58;;;;;;;6.30;0.60;;;7.70;99.90;;;;;;5104084;27;20058;-67
2023/12/26 14:58:01;;;;;;;2.72;0.68;;;7.60;99.90;;;;;;5104899;27;20096;-67
2023/12/26 15:01:05;;;;;;;5.88;0.50;;;7.60;99.90;;;;;;5101102;27;20489;-67
2023/12/26 15:03:33;;;;;;;4.75;0.80;;;7.60;99.90;;;;;;5103186;27;20032;-67
2023/12/26 15:05:59;;;;;;;6.22;1.25;;;7.60;99.90;;;;;;5116850;27;20059;-67
2023/12/26 15:08:24;;;;;;;4.45;0.55;;;7.50;99.90;;;;;;5136021;27;20438;-67
2023/12/26 15:10:50;;;;;;;6.18;0.70;;;7.50;99.90;;;;;;5103505;27;20882;-67
2023/12/26 15:13:16;;;;;;;7.88;0.77;;;7.50;99.90;;;;;;5105476;27;20114;-67
2023/12/26 15:15:42;;;;;;;3.15;0.40;;;7.40;99.90;;;;;;5137789;27;20135;-67
2023/12/26 15:18:07;;;;;;;4.60;0.50;;;7.40;99.90;;;;;;5106551;27;20509;-67
2023/12/26 15:20:33;;;;;;;5.43;0.60;;;7.30;99.90;;;;;;5133608;27;20092;-67
2023/12/26 15:22:59;;;;;;;4.18;0.55;;;7.40;99.90;;;;;;5102263;28;20050;-67
2023/12/26 15:25:24;;;;;;;9.95;0.60;;;7.30;99.90;;;;;;5104256;27;20062;-68
2023/12/26 15:27:50;;;;;;;4.93;0.52;;;7.20;99.90;;;;;;5107633;27;20440;-67
2023/12/26 15:30:16;;;;;;;4.65;0.43;;;7.20;99.90;;;;;;5102194;27;20485;-67
2023/12/26 15:32:41;;;;;;;5.70;0.65;;;7.20;99.90;;;;;;5104831;27;20393;-67
2023/12/26 15:35:08;;;;;;;9.82;0.68;;;7.10;99.90;;;;;;5106403;27;20043;-67
2023/12/26 15:37:34;;;;;;;4.32;0.52;;;7.00;99.90;;;;;;5102654;27;20510;-67
2023/12/26 15:39:59;;;;;;;6.22;0.50;;;7.00;99.90;;;;;;5104833;27;20051;-67
2023/12/26 15:42:25;;;;;;;6.95;1.35;;;7.00;99.90;;;;;;5101818;27;20746;-67
2023/12/26 15:44:51;;;;;;;5.03;0.60;;;7.00;99.90;;;;;;5103282;27;20064;-67
2023/12/26 15:47:16;;;;;;;5.40;0.68;;;7.00;99.90;;;;;;5104537;27;20052;-67
2023/12/26 15:49:42;;;;;;;6.30;0.60;;;6.90;99.90;;;;;;5104114;27;20357;-67
2023/12/26 15:52:11;;;;;;;3.60;0.40;;;6.90;99.90;;;;;;5102241;27;20051;-67